Arrey, NM

2:24 AM MDT on July 23, 2014 (GMT -0600)
Truth Or Consequences Municipal (KTCS) Elev 4859 ft | 33.24 °N, 107.27 °W | Change Station

Current weather conditions updated 31 minutes ago

Clear
Clear
74 °F
Feels Like 74 °F
N
5
Wind Variable Wind from West

Today is forecast to be Much Cooler than yesterday.

Today
High -- | Low -- °F
--% Chance of Precip.
Yesterday
High -- | Low -- °F
Precip. -- in
6:17 AM 8:14 PM
Waning Crescent, 12% visible
Pressure 29.99 in
Visibility 10.0 miles
Clouds Clear
Dew Point 58 °F
Humidity 57%
Rainfall 0.00 in
Snow Depth Not available.
UV 0 out of 12
Pollen 4.30 out of 12
Air Quality Not available.
Flu Activity Not available.
METAR KTCS 230753Z AUTO 26004KT 10SM CLR 23/14 A3028 RMK AO2 SLP155 T02330144 TSNO

More Conditions Fewer Conditions

Pressure 29.99 in
Visibility 10.0 miles
Clouds Clear
Dew Point 58 °F
Humidity 57%
Rainfall 0.00 in
Snow Depth Not available.
UV 0 out of 12
Pollen 4.30 out of 12
Air Quality Not available.
Flu Activity Not available.
METAR KTCS 230753Z AUTO 26004KT 10SM CLR 23/14 A3028 RMK AO2 SLP155 T02330144 TSNO

More Conditions Fewer Conditions

10-Day Weather Forecast

Almanac

Astronomy

Jul. 23, 2014 Rise Set
Actual Time 6:17 AM MDT 8:14 PM MDT
Civil Twilight 5:50 AM MDT 8:41 PM MDT
Nautical Twilight 5:16 AM MDT 9:14 PM MDT
Astronomical Twilight 4:41 AM MDT 9:50 PM MDT
Moon 3:37 AM MDT 5:46 PM MDT
Length of Visible Light 14h 51m
Length of Day
13h 56m
Tomorrow will be 1m 16s shorter.
Waning Crescent, 12% of the Moon is Illuminated
Today
Waning Crescent
Jul 26
New
Aug 3
First Quarter
Aug 10
Full
Aug 17
Last Quarter

Today's Extremes

State Highs State Lows

Community

WunderPhotos

Upload Photos

1,736,529 photos uploaded!

Nearby

Snow Depth

Station Depth Elevation
Silver Creek Divide 0 in 9000 ft
Sierra Blanca 1 in 10280 ft
Senorita Divide #2 0 in 8600 ft
Santa Fe 1 in 11445 ft
Wesner Springs 1 in 11120 ft

Earthquake Activity

City Distance Mag. Time & Date
Lordsburg, New Mexico 96 miles 3.0 3:12 AM MDT
2014-07-17
Minimum magnitude displayed is 2.5.

Coastal Water Temperatures

Place Temperature
No Stations Reporting

Nearby Weather Stations

There are no personal weather stations in this area.